sensor_id;sensor_type;location;lat;lon;timestamp;P1;durP1;ratioP1;P2;durP2;ratioP2
41219;SDS011;26951;47.338;9.196;2023-03-14T00:00:21;0.20;;;0.20;;
41219;SDS011;26951;47.338;9.196;2023-03-14T00:03:05;0.63;;;0.30;;
41219;SDS011;26951;47.338;9.196;2023-03-14T00:05:50;0.55;;;0.55;;
41219;SDS011;26951;47.338;9.196;2023-03-14T00:08:34;0.70;;;0.40;;
41219;SDS011;26951;47.338;9.196;2023-03-14T00:11:20;0.52;;;0.52;;
41219;SDS011;26951;47.338;9.196;2023-03-14T00:14:04;1.33;;;0.50;;
41219;SDS011;26951;47.338;9.196;2023-03-14T00:16:49;1.00;;;0.60;;
41219;SDS011;26951;47.338;9.196;2023-03-14T00:19:33;0.50;;;0.40;;
41219;SDS011;26951;47.338;9.196;2023-03-14T00:22:17;1.38;;;0.50;;
41219;SDS011;26951;47.338;9.196;2023-03-14T00:25:01;0.35;;;0.35;;
41219;SDS011;26951;47.338;9.196;2023-03-14T00:27:47;0.28;;;0.28;;
41219;SDS011;26951;47.338;9.196;2023-03-14T00:30:36;0.82;;;0.45;;
41219;SDS011;26951;47.338;9.196;2023-03-14T00:33:20;0.65;;;0.35;;
41219;SDS011;26951;47.338;9.196;2023-03-14T00:36:06;0.45;;;0.40;;
41219;SDS011;26951;47.338;9.196;2023-03-14T00:38:55;0.40;;;0.40;;
41219;SDS011;26951;47.338;9.196;2023-03-14T00:41:39;1.23;;;0.20;;
41219;SDS011;26951;47.338;9.196;2023-03-14T00:44:23;0.55;;;0.55;;
41219;SDS011;26951;47.338;9.196;2023-03-14T00:47:08;1.65;;;0.30;;
41219;SDS011;26951;47.338;9.196;2023-03-14T00:49:52;0.30;;;0.30;;
41219;SDS011;26951;47.338;9.196;2023-03-14T00:52:36;0.65;;;0.63;;
41219;SDS011;26951;47.338;9.196;2023-03-14T00:55:20;0.10;;;0.10;;
41219;SDS011;26951;47.338;9.196;2023-03-14T00:58:05;0.22;;;0.20;;
41219;SDS011;26951;47.338;9.196;2023-03-14T01:04:30;0.10;;;0.10;;
41219;SDS011;26951;47.338;9.196;2023-03-14T01:07:15;0.10;;;0.10;;
41219;SDS011;26951;47.338;9.196;2023-03-14T01:09:59;0.20;;;0.20;;
41219;SDS011;26951;47.338;9.196;2023-03-14T01:12:43;1.48;;;0.20;;
41219;SDS011;26951;47.338;9.196;2023-03-14T01:15:28;1.15;;;0.15;;
41219;SDS011;26951;47.338;9.196;2023-03-14T01:18:12;0.10;;;0.10;;
41219;SDS011;26951;47.338;9.196;2023-03-14T01:20:56;0.20;;;0.20;;
41219;SDS011;26951;47.338;9.196;2023-03-14T01:23:41;0.10;;;0.10;;
41219;SDS011;26951;47.338;9.196;2023-03-14T01:26:28;0.20;;;0.20;;
41219;SDS011;26951;47.338;9.196;2023-03-14T01:29:15;0.40;;;0.10;;
41219;SDS011;26951;47.338;9.196;2023-03-14T01:31:59;0.20;;;0.20;;
41219;SDS011;26951;47.338;9.196;2023-03-14T01:34:43;0.88;;;0.20;;
41219;SDS011;26951;47.338;9.196;2023-03-14T01:37:27;0.20;;;0.20;;
41219;SDS011;26951;47.338;9.196;2023-03-14T01:40:11;0.10;;;0.10;;
41219;SDS011;26951;47.338;9.196;2023-03-14T01:42:58;0.30;;;0.30;;
41219;SDS011;26951;47.338;9.196;2023-03-14T01:54:44;0.20;;;0.20;;
41219;SDS011;26951;47.338;9.196;2023-03-14T01:57:35;0.10;;;0.10;;
41219;SDS011;26951;47.338;9.196;2023-03-14T02:00:23;0.10;;;0.10;;
41219;SDS011;26951;47.338;9.196;2023-03-14T02:03:12;0.10;;;0.10;;
41219;SDS011;26951;47.338;9.196;2023-03-14T02:06:00;1.17;;;0.20;;
41219;SDS011;26951;47.338;9.196;2023-03-14T02:08:50;1.10;;;0.15;;
41219;SDS011;26951;47.338;9.196;2023-03-14T02:11:35;0.20;;;0.20;;
41219;SDS011;26951;47.338;9.196;2023-03-14T02:14:22;0.20;;;0.20;;
41219;SDS011;26951;47.338;9.196;2023-03-14T02:17:14;0.30;;;0.30;;
41219;SDS011;26951;47.338;9.196;2023-03-14T02:22:59;0.05;;;0.05;;
41219;SDS011;26951;47.338;9.196;2023-03-14T02:25:57;0.25;;;0.20;;
41219;SDS011;26951;47.338;9.196;2023-03-14T02:28:47;0.38;;;0.13;;
41219;SDS011;26951;47.338;9.196;2023-03-14T02:31:32;0.30;;;0.30;;
41219;SDS011;26951;47.338;9.196;2023-03-14T02:34:17;0.65;;;0.25;;
41219;SDS011;26951;47.338;9.196;2023-03-14T02:37:01;0.35;;;0.35;;
41219;SDS011;26951;47.338;9.196;2023-03-14T02:39:47;0.10;;;0.10;;
41219;SDS011;26951;47.338;9.196;2023-03-14T02:42:32;0.10;;;0.10;;
41219;SDS011;26951;47.338;9.196;2023-03-14T02:48:02;0.17;;;0.17;;
41219;SDS011;26951;47.338;9.196;2023-03-14T02:50:54;0.35;;;0.22;;
41219;SDS011;26951;47.338;9.196;2023-03-14T02:53:40;0.15;;;0.15;;
41219;SDS011;26951;47.338;9.196;2023-03-14T02:56:26;0.35;;;0.20;;
41219;SDS011;26951;47.338;9.196;2023-03-14T02:59:10;0.10;;;0.10;;
41219;SDS011;26951;47.338;9.196;2023-03-14T03:01:54;0.15;;;0.15;;
41219;SDS011;26951;47.338;9.196;2023-03-14T03:04:38;0.10;;;0.10;;
41219;SDS011;26951;47.338;9.196;2023-03-14T03:07:22;0.20;;;0.20;;
41219;SDS011;26951;47.338;9.196;2023-03-14T03:10:07;0.15;;;0.15;;
41219;SDS011;26951;47.338;9.196;2023-03-14T03:12:52;0.20;;;0.20;;
41219;SDS011;26951;47.338;9.196;2023-03-14T03:15:36;1.35;;;0.15;;
41219;SDS011;26951;47.338;9.196;2023-03-14T03:18:20;0.10;;;0.10;;
41219;SDS011;26951;47.338;9.196;2023-03-14T03:21:05;0.32;;;0.10;;
41219;SDS011;26951;47.338;9.196;2023-03-14T03:23:52;0.20;;;0.20;;
41219;SDS011;26951;47.338;9.196;2023-03-14T03:26:36;0.20;;;0.20;;
41219;SDS011;26951;47.338;9.196;2023-03-14T03:29:20;0.20;;;0.20;;
41219;SDS011;26951;47.338;9.196;2023-03-14T03:32:05;0.10;;;0.10;;
41219;SDS011;26951;47.338;9.196;2023-03-14T03:34:49;0.10;;;0.10;;
41219;SDS011;26951;47.338;9.196;2023-03-14T03:37:34;0.30;;;0.30;;
41219;SDS011;26951;47.338;9.196;2023-03-14T03:40:18;0.20;;;0.20;;
41219;SDS011;26951;47.338;9.196;2023-03-14T03:43:04;0.10;;;0.10;;
41219;SDS011;26951;47.338;9.196;2023-03-14T03:45:48;0.13;;;0.13;;
41219;SDS011;26951;47.338;9.196;2023-03-14T03:48:32;0.22;;;0.22;;
41219;SDS011;26951;47.338;9.196;2023-03-14T03:51:17;0.25;;;0.20;;
41219;SDS011;26951;47.338;9.196;2023-03-14T03:54:01;0.10;;;0.10;;
41219;SDS011;26951;47.338;9.196;2023-03-14T03:56:45;0.10;;;0.10;;
41219;SDS011;26951;47.338;9.196;2023-03-14T03:59:29;0.10;;;0.10;;
41219;SDS011;26951;47.338;9.196;2023-03-14T04:02:13;0.00;;;0.00;;
41219;SDS011;26951;47.338;9.196;2023-03-14T04:04:57;0.10;;;0.10;;
41219;SDS011;26951;47.338;9.196;2023-03-14T04:07:42;0.17;;;0.17;;
41219;SDS011;26951;47.338;9.196;2023-03-14T04:10:26;0.05;;;0.05;;
41219;SDS011;26951;47.338;9.196;2023-03-14T04:13:10;0.20;;;0.20;;
41219;SDS011;26951;47.338;9.196;2023-03-14T04:15:54;0.28;;;0.28;;
41219;SDS011;26951;47.338;9.196;2023-03-14T04:18:39;0.10;;;0.10;;
41219;SDS011;26951;47.338;9.196;2023-03-14T04:21:23;0.20;;;0.20;;
41219;SDS011;26951;47.338;9.196;2023-03-14T04:24:08;0.20;;;0.20;;
41219;SDS011;26951;47.338;9.196;2023-03-14T04:26:52;0.20;;;0.20;;
41219;SDS011;26951;47.338;9.196;2023-03-14T04:29:36;0.20;;;0.20;;
41219;SDS011;26951;47.338;9.196;2023-03-14T04:32:20;0.13;;;0.13;;
41219;SDS011;26951;47.338;9.196;2023-03-14T04:35:05;2.63;;;0.30;;
41219;SDS011;26951;47.338;9.196;2023-03-14T04:37:49;0.10;;;0.10;;
41219;SDS011;26951;47.338;9.196;2023-03-14T04:40:38;0.38;;;0.20;;
41219;SDS011;26951;47.338;9.196;2023-03-14T04:43:23;1.20;;;0.20;;
41219;SDS011;26951;47.338;9.196;2023-03-14T04:46:09;0.13;;;0.13;;
41219;SDS011;26951;47.338;9.196;2023-03-14T04:48:53;0.30;;;0.30;;
41219;SDS011;26951;47.338;9.196;2023-03-14T04:51:39;1.52;;;1.42;;
41219;SDS011;26951;47.338;9.196;2023-03-14T04:54:24;1.02;;;0.93;;
41219;SDS011;26951;47.338;9.196;2023-03-14T04:57:08;2.42;;;2.17;;
41219;SDS011;26951;47.338;9.196;2023-03-14T04:59:52;0.88;;;0.88;;
41219;SDS011;26951;47.338;9.196;2023-03-14T05:02:36;0.40;;;0.40;;
41219;SDS011;26951;47.338;9.196;2023-03-14T05:05:21;0.40;;;0.40;;
41219;SDS011;26951;47.338;9.196;2023-03-14T05:08:05;0.30;;;0.30;;
41219;SDS011;26951;47.338;9.196;2023-03-14T05:10:56;1.02;;;1.02;;
41219;SDS011;26951;47.338;9.196;2023-03-14T05:13:41;0.77;;;0.50;;
41219;SDS011;26951;47.338;9.196;2023-03-14T05:16:25;0.65;;;0.55;;
41219;SDS011;26951;47.338;9.196;2023-03-14T05:19:10;0.60;;;0.40;;
41219;SDS011;26951;47.338;9.196;2023-03-14T05:21:55;0.35;;;0.30;;
41219;SDS011;26951;47.338;9.196;2023-03-14T05:24:39;0.20;;;0.20;;
41219;SDS011;26951;47.338;9.196;2023-03-14T05:27:24;0.20;;;0.20;;
41219;SDS011;26951;47.338;9.196;2023-03-14T05:30:08;0.98;;;0.70;;
41219;SDS011;26951;47.338;9.196;2023-03-14T05:32:53;0.82;;;0.30;;
41219;SDS011;26951;47.338;9.196;2023-03-14T05:35:37;0.30;;;0.30;;
41219;SDS011;26951;47.338;9.196;2023-03-14T05:38:22;1.40;;;0.60;;
41219;SDS011;26951;47.338;9.196;2023-03-14T05:41:06;0.75;;;0.35;;
41219;SDS011;26951;47.338;9.196;2023-03-14T05:43:50;1.27;;;0.40;;
41219;SDS011;26951;47.338;9.196;2023-03-14T05:46:34;0.30;;;0.30;;
41219;SDS011;26951;47.338;9.196;2023-03-14T05:49:18;0.40;;;0.40;;
41219;SDS011;26951;47.338;9.196;2023-03-14T05:52:02;0.20;;;0.20;;
41219;SDS011;26951;47.338;9.196;2023-03-14T05:54:46;0.80;;;0.50;;
41219;SDS011;26951;47.338;9.196;2023-03-14T05:57:31;0.22;;;0.22;;
41219;SDS011;26951;47.338;9.196;2023-03-14T06:00:15;2.22;;;2.03;;
41219;SDS011;26951;47.338;9.196;2023-03-14T06:02:59;1.63;;;1.17;;
41219;SDS011;26951;47.338;9.196;2023-03-14T06:05:45;1.02;;;0.93;;
41219;SDS011;26951;47.338;9.196;2023-03-14T06:08:29;1.20;;;0.80;;
41219;SDS011;26951;47.338;9.196;2023-03-14T06:11:14;1.38;;;0.85;;
41219;SDS011;26951;47.338;9.196;2023-03-14T06:13:58;0.75;;;0.75;;
41219;SDS011;26951;47.338;9.196;2023-03-14T06:16:42;2.15;;;0.70;;
41219;SDS011;26951;47.338;9.196;2023-03-14T06:19:27;0.40;;;0.40;;
41219;SDS011;26951;47.338;9.196;2023-03-14T06:22:11;0.80;;;0.80;;
41219;SDS011;26951;47.338;9.196;2023-03-14T06:24:55;0.60;;;0.60;;
41219;SDS011;26951;47.338;9.196;2023-03-14T06:27:39;0.60;;;0.47;;
41219;SDS011;26951;47.338;9.196;2023-03-14T06:30:23;1.27;;;0.45;;
41219;SDS011;26951;47.338;9.196;2023-03-14T06:33:08;0.57;;;0.55;;
41219;SDS011;26951;47.338;9.196;2023-03-14T06:35:52;1.65;;;0.68;;
41219;SDS011;26951;47.338;9.196;2023-03-14T06:38:36;0.60;;;0.50;;
41219;SDS011;26951;47.338;9.196;2023-03-14T06:41:20;0.60;;;0.60;;
41219;SDS011;26951;47.338;9.196;2023-03-14T06:44:07;0.98;;;0.60;;
41219;SDS011;26951;47.338;9.196;2023-03-14T06:46:52;0.73;;;0.50;;
41219;SDS011;26951;47.338;9.196;2023-03-14T06:49:36;0.98;;;0.75;;
41219;SDS011;26951;47.338;9.196;2023-03-14T06:52:20;1.48;;;0.68;;
41219;SDS011;26951;47.338;9.196;2023-03-14T06:55:04;0.47;;;0.47;;
41219;SDS011;26951;47.338;9.196;2023-03-14T06:57:49;0.60;;;0.53;;
41219;SDS011;26951;47.338;9.196;2023-03-14T07:00:33;0.57;;;0.57;;
41219;SDS011;26951;47.338;9.196;2023-03-14T07:03:17;0.40;;;0.40;;
41219;SDS011;26951;47.338;9.196;2023-03-14T07:06:02;1.23;;;0.50;;
41219;SDS011;26951;47.338;9.196;2023-03-14T07:08:46;0.60;;;0.43;;
41219;SDS011;26951;47.338;9.196;2023-03-14T07:11:30;0.35;;;0.35;;
41219;SDS011;26951;47.338;9.196;2023-03-14T07:14:14;0.50;;;0.40;;
41219;SDS011;26951;47.338;9.196;2023-03-14T07:16:58;0.57;;;0.40;;
41219;SDS011;26951;47.338;9.196;2023-03-14T07:19:42;0.50;;;0.40;;
41219;SDS011;26951;47.338;9.196;2023-03-14T07:22:26;0.70;;;0.50;;
41219;SDS011;26951;47.338;9.196;2023-03-14T07:25:10;0.95;;;0.50;;
41219;SDS011;26951;47.338;9.196;2023-03-14T07:27:55;0.50;;;0.40;;
41219;SDS011;26951;47.338;9.196;2023-03-14T07:30:39;0.50;;;0.50;;
41219;SDS011;26951;47.338;9.196;2023-03-14T07:33:23;1.42;;;0.70;;
41219;SDS011;26951;47.338;9.196;2023-03-14T07:36:07;1.17;;;1.02;;
41219;SDS011;26951;47.338;9.196;2023-03-14T07:38:52;1.23;;;0.88;;
41219;SDS011;26951;47.338;9.196;2023-03-14T07:41:36;3.15;;;1.10;;
41219;SDS011;26951;47.338;9.196;2023-03-14T07:44:20;1.58;;;1.10;;
41219;SDS011;26951;47.338;9.196;2023-03-14T07:47:04;2.03;;;1.20;;
41219;SDS011;26951;47.338;9.196;2023-03-14T07:49:48;1.10;;;1.00;;
41219;SDS011;26951;47.338;9.196;2023-03-14T07:52:33;0.82;;;0.70;;
41219;SDS011;26951;47.338;9.196;2023-03-14T07:55:17;1.30;;;0.80;;
41219;SDS011;26951;47.338;9.196;2023-03-14T07:58:01;1.75;;;0.88;;
41219;SDS011;26951;47.338;9.196;2023-03-14T08:00:45;0.55;;;0.50;;
41219;SDS011;26951;47.338;9.196;2023-03-14T08:03:29;0.68;;;0.50;;
41219;SDS011;26951;47.338;9.196;2023-03-14T08:06:13;3.00;;;1.25;;
41219;SDS011;26951;47.338;9.196;2023-03-14T08:08:58;0.70;;;0.70;;
41219;SDS011;26951;47.338;9.196;2023-03-14T08:11:41;0.75;;;0.75;;
41219;SDS011;26951;47.338;9.196;2023-03-14T08:14:26;0.60;;;0.60;;
41219;SDS011;26951;47.338;9.196;2023-03-14T08:17:10;0.50;;;0.50;;
41219;SDS011;26951;47.338;9.196;2023-03-14T08:19:54;0.60;;;0.55;;
41219;SDS011;26951;47.338;9.196;2023-03-14T08:22:38;0.50;;;0.50;;
41219;SDS011;26951;47.338;9.196;2023-03-14T08:25:22;0.60;;;0.60;;
41219;SDS011;26951;47.338;9.196;2023-03-14T08:28:06;0.50;;;0.50;;
41219;SDS011;26951;47.338;9.196;2023-03-14T08:30:51;0.80;;;0.68;;
41219;SDS011;26951;47.338;9.196;2023-03-14T08:33:38;1.17;;;0.63;;
41219;SDS011;26951;47.338;9.196;2023-03-14T08:36:22;0.85;;;0.52;;
41219;SDS011;26951;47.338;9.196;2023-03-14T08:39:06;0.68;;;0.50;;
41219;SDS011;26951;47.338;9.196;2023-03-14T08:41:51;0.77;;;0.47;;
41219;SDS011;26951;47.338;9.196;2023-03-14T08:44:35;1.00;;;0.80;;
41219;SDS011;26951;47.338;9.196;2023-03-14T08:47:19;0.77;;;0.52;;
41219;SDS011;26951;47.338;9.196;2023-03-14T08:50:04;0.55;;;0.55;;
41219;SDS011;26951;47.338;9.196;2023-03-14T08:52:49;0.43;;;0.40;;
41219;SDS011;26951;47.338;9.196;2023-03-14T08:55:33;0.35;;;0.35;;
41219;SDS011;26951;47.338;9.196;2023-03-14T08:58:17;0.57;;;0.57;;
41219;SDS011;26951;47.338;9.196;2023-03-14T09:01:01;1.30;;;0.85;;
41219;SDS011;26951;47.338;9.196;2023-03-14T09:03:45;0.60;;;0.60;;
41219;SDS011;26951;47.338;9.196;2023-03-14T09:06:30;0.52;;;0.52;;
41219;SDS011;26951;47.338;9.196;2023-03-14T09:09:14;0.80;;;0.80;;
41219;SDS011;26951;47.338;9.196;2023-03-14T09:11:58;0.95;;;0.80;;
41219;SDS011;26951;47.338;9.196;2023-03-14T09:14:43;2.33;;;0.80;;
41219;SDS011;26951;47.338;9.196;2023-03-14T09:17:27;0.82;;;0.82;;
41219;SDS011;26951;47.338;9.196;2023-03-14T09:20:11;0.50;;;0.50;;
41219;SDS011;26951;47.338;9.196;2023-03-14T09:22:56;0.50;;;0.45;;
41219;SDS011;26951;47.338;9.196;2023-03-14T09:25:40;1.02;;;0.60;;
41219;SDS011;26951;47.338;9.196;2023-03-14T09:28:24;0.50;;;0.50;;
41219;SDS011;26951;47.338;9.196;2023-03-14T09:31:09;1.13;;;0.60;;
41219;SDS011;26951;47.338;9.196;2023-03-14T09:33:55;0.70;;;0.70;;
41219;SDS011;26951;47.338;9.196;2023-03-14T09:36:40;1.02;;;0.60;;
41219;SDS011;26951;47.338;9.196;2023-03-14T09:39:24;0.38;;;0.38;;
41219;SDS011;26951;47.338;9.196;2023-03-14T09:42:10;1.27;;;0.55;;
41219;SDS011;26951;47.338;9.196;2023-03-14T09:45:00;2.70;;;0.50;;
41219;SDS011;26951;47.338;9.196;2023-03-14T09:47:47;0.30;;;0.30;;
41219;SDS011;26951;47.338;9.196;2023-03-14T09:50:40;0.38;;;0.38;;
41219;SDS011;26951;47.338;9.196;2023-03-14T09:53:47;0.60;;;0.60;;
41219;SDS011;26951;47.338;9.196;2023-03-14T09:56:32;0.38;;;0.38;;
41219;SDS011;26951;47.338;9.196;2023-03-14T09:59:18;1.13;;;0.60;;
41219;SDS011;26951;47.338;9.196;2023-03-14T10:02:20;0.50;;;0.50;;
41219;SDS011;26951;47.338;9.196;2023-03-14T10:05:13;0.93;;;0.45;;
41219;SDS011;26951;47.338;9.196;2023-03-14T10:07:59;0.60;;;0.60;;
41219;SDS011;26951;47.338;9.196;2023-03-14T10:10:43;0.63;;;0.63;;
41219;SDS011;26951;47.338;9.196;2023-03-14T10:13:27;0.60;;;0.60;;
41219;SDS011;26951;47.338;9.196;2023-03-14T10:16:12;0.82;;;0.82;;
41219;SDS011;26951;47.338;9.196;2023-03-14T10:19:04;0.80;;;0.80;;
41219;SDS011;26951;47.338;9.196;2023-03-14T10:21:53;0.65;;;0.65;;
41219;SDS011;26951;47.338;9.196;2023-03-14T10:24:37;0.65;;;0.65;;
41219;SDS011;26951;47.338;9.196;2023-03-14T10:27:34;0.50;;;0.50;;
41219;SDS011;26951;47.338;9.196;2023-03-14T10:33:35;0.90;;;0.90;;
41219;SDS011;26951;47.338;9.196;2023-03-14T10:36:21;1.63;;;1.00;;
41219;SDS011;26951;47.338;9.196;2023-03-14T10:39:22;1.10;;;1.00;;
41219;SDS011;26951;47.338;9.196;2023-03-14T10:42:19;0.95;;;0.90;;
41219;SDS011;26951;47.338;9.196;2023-03-14T10:45:27;0.82;;;0.80;;
41219;SDS011;26951;47.338;9.196;2023-03-14T10:48:20;0.85;;;0.80;;
41219;SDS011;26951;47.338;9.196;2023-03-14T10:51:10;1.23;;;1.00;;
41219;SDS011;26951;47.338;9.196;2023-03-14T10:54:19;0.95;;;0.90;;
41219;SDS011;26951;47.338;9.196;2023-03-14T10:57:05;1.15;;;0.77;;
41219;SDS011;26951;47.338;9.196;2023-03-14T10:59:52;0.95;;;0.80;;
41219;SDS011;26951;47.338;9.196;2023-03-14T11:05:52;1.05;;;0.90;;
41219;SDS011;26951;47.338;9.196;2023-03-14T11:09:01;0.77;;;0.77;;
41219;SDS011;26951;47.338;9.196;2023-03-14T11:12:20;1.58;;;1.05;;
41219;SDS011;26951;47.338;9.196;2023-03-14T11:15:14;0.80;;;0.80;;
41219;SDS011;26951;47.338;9.196;2023-03-14T11:24:15;1.10;;;1.00;;
41219;SDS011;26951;47.338;9.196;2023-03-14T11:27:24;0.95;;;0.85;;
41219;SDS011;26951;47.338;9.196;2023-03-14T11:30:38;0.80;;;0.77;;
41219;SDS011;26951;47.338;9.196;2023-03-14T11:33:41;1.92;;;1.02;;
41219;SDS011;26951;47.338;9.196;2023-03-14T11:36:38;2.65;;;0.90;;
41219;SDS011;26951;47.338;9.196;2023-03-14T11:39:25;1.13;;;0.93;;
41219;SDS011;26951;47.338;9.196;2023-03-14T11:42:13;0.90;;;0.63;;
41219;SDS011;26951;47.338;9.196;2023-03-14T11:45:00;0.70;;;0.70;;
41219;SDS011;26951;47.338;9.196;2023-03-14T11:47:45;1.20;;;1.10;;
41219;SDS011;26951;47.338;9.196;2023-03-14T11:50:37;0.93;;;0.88;;
41219;SDS011;26951;47.338;9.196;2023-03-14T11:53:34;2.45;;;0.90;;
41219;SDS011;26951;47.338;9.196;2023-03-14T11:56:27;1.02;;;0.93;;
41219;SDS011;26951;47.338;9.196;2023-03-14T12:08:30;0.50;;;0.50;;
41219;SDS011;26951;47.338;9.196;2023-03-14T12:14:33;0.55;;;0.30;;
41219;SDS011;26951;47.338;9.196;2023-03-14T12:20:24;0.32;;;0.32;;
41219;SDS011;26951;47.338;9.196;2023-03-14T12:23:10;0.30;;;0.30;;
41219;SDS011;26951;47.338;9.196;2023-03-14T12:28:51;0.38;;;0.38;;
41219;SDS011;26951;47.338;9.196;2023-03-14T12:32:12;0.20;;;0.20;;
41219;SDS011;26951;47.338;9.196;2023-03-14T12:35:23;0.30;;;0.30;;
41219;SDS011;26951;47.338;9.196;2023-03-14T12:38:23;0.30;;;0.20;;
41219;SDS011;26951;47.338;9.196;2023-03-14T12:50:07;0.40;;;0.40;;
41219;SDS011;26951;47.338;9.196;2023-03-14T12:59:32;0.40;;;0.35;;
41219;SDS011;26951;47.338;9.196;2023-03-14T13:02:26;0.28;;;0.28;;
41219;SDS011;26951;47.338;9.196;2023-03-14T13:05:23;0.47;;;0.28;;
41219;SDS011;26951;47.338;9.196;2023-03-14T13:08:09;0.38;;;0.38;;
41219;SDS011;26951;47.338;9.196;2023-03-14T13:10:54;1.48;;;0.55;;
41219;SDS011;26951;47.338;9.196;2023-03-14T13:13:42;0.30;;;0.30;;
41219;SDS011;26951;47.338;9.196;2023-03-14T13:16:29;0.65;;;0.50;;
41219;SDS011;26951;47.338;9.196;2023-03-14T13:19:15;0.50;;;0.50;;
41219;SDS011;26951;47.338;9.196;2023-03-14T13:22:16;0.73;;;0.50;;
41219;SDS011;26951;47.338;9.196;2023-03-14T13:25:22;0.40;;;0.40;;
41219;SDS011;26951;47.338;9.196;2023-03-14T13:28:09;0.85;;;0.50;;
41219;SDS011;26951;47.338;9.196;2023-03-14T13:30:55;0.65;;;0.55;;
41219;SDS011;26951;47.338;9.196;2023-03-14T13:33:41;0.73;;;0.40;;
41219;SDS011;26951;47.338;9.196;2023-03-14T13:36:26;0.40;;;0.40;;
41219;SDS011;26951;47.338;9.196;2023-03-14T13:39:16;0.43;;;0.43;;
41219;SDS011;26951;47.338;9.196;2023-03-14T13:42:02;0.50;;;0.50;;
41219;SDS011;26951;47.338;9.196;2023-03-14T13:44:46;0.70;;;0.70;;
41219;SDS011;26951;47.338;9.196;2023-03-14T13:47:31;0.90;;;0.77;;
41219;SDS011;26951;47.338;9.196;2023-03-14T13:50:15;1.40;;;0.50;;
41219;SDS011;26951;47.338;9.196;2023-03-14T13:53:01;0.77;;;0.77;;
41219;SDS011;26951;47.338;9.196;2023-03-14T13:55:45;1.42;;;0.80;;
41219;SDS011;26951;47.338;9.196;2023-03-14T13:58:30;1.80;;;0.70;;
41219;SDS011;26951;47.338;9.196;2023-03-14T14:01:20;0.98;;;0.55;;
41219;SDS011;26951;47.338;9.196;2023-03-14T14:04:14;0.67;;;0.67;;
41219;SDS011;26951;47.338;9.196;2023-03-14T14:07:07;0.73;;;0.70;;
41219;SDS011;26951;47.338;9.196;2023-03-14T14:09:55;0.70;;;0.70;;
41219;SDS011;26951;47.338;9.196;2023-03-14T14:12:44;1.35;;;0.70;;
41219;SDS011;26951;47.338;9.196;2023-03-14T14:15:37;0.70;;;0.70;;
41219;SDS011;26951;47.338;9.196;2023-03-14T14:18:26;0.75;;;0.60;;
41219;SDS011;26951;47.338;9.196;2023-03-14T14:21:11;1.77;;;0.80;;
41219;SDS011;26951;47.338;9.196;2023-03-14T14:23:57;2.25;;;0.77;;
41219;SDS011;26951;47.338;9.196;2023-03-14T14:26:47;1.35;;;0.90;;
41219;SDS011;26951;47.338;9.196;2023-03-14T14:29:35;1.75;;;0.90;;
41219;SDS011;26951;47.338;9.196;2023-03-14T14:32:19;0.90;;;0.80;;
41219;SDS011;26951;47.338;9.196;2023-03-14T14:35:05;2.20;;;0.55;;
41219;SDS011;26951;47.338;9.196;2023-03-14T14:37:50;1.95;;;0.63;;
41219;SDS011;26951;47.338;9.196;2023-03-14T14:40:35;1.15;;;0.70;;
41219;SDS011;26951;47.338;9.196;2023-03-14T14:43:36;0.80;;;0.70;;
41219;SDS011;26951;47.338;9.196;2023-03-14T14:46:23;1.05;;;0.80;;
41219;SDS011;26951;47.338;9.196;2023-03-14T14:49:16;0.88;;;0.80;;
41219;SDS011;26951;47.338;9.196;2023-03-14T14:52:04;2.65;;;1.20;;
41219;SDS011;26951;47.338;9.196;2023-03-14T14:54:57;2.05;;;1.10;;
41219;SDS011;26951;47.338;9.196;2023-03-14T14:57:48;4.25;;;0.93;;
41219;SDS011;26951;47.338;9.196;2023-03-14T15:00:38;1.02;;;0.70;;
41219;SDS011;26951;47.338;9.196;2023-03-14T15:03:28;1.58;;;1.15;;
41219;SDS011;26951;47.338;9.196;2023-03-14T15:06:14;1.08;;;0.80;;
41219;SDS011;26951;47.338;9.196;2023-03-14T15:09:00;2.08;;;0.80;;
41219;SDS011;26951;47.338;9.196;2023-03-14T15:11:44;1.55;;;0.85;;
41219;SDS011;26951;47.338;9.196;2023-03-14T15:14:29;3.55;;;1.27;;
41219;SDS011;26951;47.338;9.196;2023-03-14T15:17:14;2.20;;;0.75;;
41219;SDS011;26951;47.338;9.196;2023-03-14T15:19:58;1.90;;;0.95;;
41219;SDS011;26951;47.338;9.196;2023-03-14T15:22:43;1.00;;;0.90;;
41219;SDS011;26951;47.338;9.196;2023-03-14T15:25:27;2.50;;;1.10;;
41219;SDS011;26951;47.338;9.196;2023-03-14T15:28:15;1.52;;;1.13;;
41219;SDS011;26951;47.338;9.196;2023-03-14T15:31:03;2.53;;;1.02;;
41219;SDS011;26951;47.338;9.196;2023-03-14T15:33:47;1.38;;;0.82;;
41219;SDS011;26951;47.338;9.196;2023-03-14T15:36:32;0.80;;;0.80;;
41219;SDS011;26951;47.338;9.196;2023-03-14T15:39:18;1.50;;;0.60;;
41219;SDS011;26951;47.338;9.196;2023-03-14T15:42:03;1.75;;;0.75;;
41219;SDS011;26951;47.338;9.196;2023-03-14T15:44:47;1.00;;;0.90;;
41219;SDS011;26951;47.338;9.196;2023-03-14T15:47:31;1.17;;;0.63;;
41219;SDS011;26951;47.338;9.196;2023-03-14T15:50:15;2.35;;;0.80;;
41219;SDS011;26951;47.338;9.196;2023-03-14T15:53:00;0.77;;;0.70;;
41219;SDS011;26951;47.338;9.196;2023-03-14T15:55:44;1.23;;;0.70;;
41219;SDS011;26951;47.338;9.196;2023-03-14T15:58:28;1.05;;;0.80;;
41219;SDS011;26951;47.338;9.196;2023-03-14T16:01:13;0.65;;;0.65;;
41219;SDS011;26951;47.338;9.196;2023-03-14T16:03:59;0.60;;;0.60;;
41219;SDS011;26951;47.338;9.196;2023-03-14T16:06:43;0.90;;;0.88;;
41219;SDS011;26951;47.338;9.196;2023-03-14T16:09:27;0.65;;;0.57;;
41219;SDS011;26951;47.338;9.196;2023-03-14T16:12:12;0.63;;;0.63;;
41219;SDS011;26951;47.338;9.196;2023-03-14T16:14:56;1.02;;;0.75;;
41219;SDS011;26951;47.338;9.196;2023-03-14T16:17:40;1.55;;;1.00;;
41219;SDS011;26951;47.338;9.196;2023-03-14T16:20:26;0.80;;;0.80;;
41219;SDS011;26951;47.338;9.196;2023-03-14T16:23:10;0.98;;;0.63;;
41219;SDS011;26951;47.338;9.196;2023-03-14T16:25:55;0.70;;;0.70;;
41219;SDS011;26951;47.338;9.196;2023-03-14T16:28:40;0.95;;;0.75;;
41219;SDS011;26951;47.338;9.196;2023-03-14T16:31:25;1.10;;;0.90;;
41219;SDS011;26951;47.338;9.196;2023-03-14T16:34:09;0.63;;;0.60;;
41219;SDS011;26951;47.338;9.196;2023-03-14T16:36:53;1.30;;;0.90;;
41219;SDS011;26951;47.338;9.196;2023-03-14T16:39:38;0.87;;;0.83;;
41219;SDS011;26951;47.338;9.196;2023-03-14T16:42:22;1.13;;;1.02;;
41219;SDS011;26951;47.338;9.196;2023-03-14T16:45:07;2.03;;;1.10;;
41219;SDS011;26951;47.338;9.196;2023-03-14T16:47:52;1.05;;;0.93;;
41219;SDS011;26951;47.338;9.196;2023-03-14T16:50:38;1.45;;;1.10;;
41219;SDS011;26951;47.338;9.196;2023-03-14T16:53:23;2.28;;;1.77;;
41219;SDS011;26951;47.338;9.196;2023-03-14T16:56:08;1.25;;;1.10;;
41219;SDS011;26951;47.338;9.196;2023-03-14T16:58:53;1.15;;;1.05;;
41219;SDS011;26951;47.338;9.196;2023-03-14T17:01:37;1.38;;;1.10;;
41219;SDS011;26951;47.338;9.196;2023-03-14T17:04:23;1.52;;;1.08;;
41219;SDS011;26951;47.338;9.196;2023-03-14T17:07:08;1.17;;;1.00;;
41219;SDS011;26951;47.338;9.196;2023-03-14T17:09:53;0.80;;;0.80;;
41219;SDS011;26951;47.338;9.196;2023-03-14T17:12:37;0.98;;;0.80;;
41219;SDS011;26951;47.338;9.196;2023-03-14T17:15:21;1.70;;;1.60;;
41219;SDS011;26951;47.338;9.196;2023-03-14T17:18:06;0.95;;;0.85;;
41219;SDS011;26951;47.338;9.196;2023-03-14T17:20:50;1.65;;;1.30;;
41219;SDS011;26951;47.338;9.196;2023-03-14T17:23:35;1.67;;;1.05;;
41219;SDS011;26951;47.338;9.196;2023-03-14T17:26:20;0.88;;;0.70;;
41219;SDS011;26951;47.338;9.196;2023-03-14T17:29:04;0.80;;;0.80;;
41219;SDS011;26951;47.338;9.196;2023-03-14T17:31:48;0.60;;;0.60;;
41219;SDS011;26951;47.338;9.196;2023-03-14T17:34:33;0.85;;;0.85;;
41219;SDS011;26951;47.338;9.196;2023-03-14T17:37:17;2.17;;;1.00;;
41219;SDS011;26951;47.338;9.196;2023-03-14T17:40:01;1.50;;;0.98;;
41219;SDS011;26951;47.338;9.196;2023-03-14T17:42:47;1.35;;;0.98;;
41219;SDS011;26951;47.338;9.196;2023-03-14T17:45:31;1.40;;;1.30;;
41219;SDS011;26951;47.338;9.196;2023-03-14T17:48:16;1.17;;;1.08;;